Terminal Aerodrome Forecast
Issued by NWS

Home | Current Version | Previous Version | Text Only | Print | Product List | Glossary On
Versions: 1 2 3 4 5 6 7 8 9 10 11 12 13 14 15 16
000
FTUS46 KOTX 211131
TAFMWH
TAF
KMWH 211131Z 2112/2212 16004KT P6SM BKN200
     FM211400 18007KT P6SM VCSH BKN100 OVC150
     FM211800 14010KT P6SM -RA BKN040 OVC060
      TEMPO 2119/2122 -RA BKN025 OVC050
     FM212200 20012KT P6SM VCSH BKN050 BKN080
     FM220300 18010KT P6SM SCT250=

USA.gov is the U.S. government's official web portal to all federal, state and local government web resources and services.